Time,TemperatureF,DewpointF,PressureIn,WindDirection,WindDirectionDegrees,WindSpeedMPH,WindSpeedGustMPH,Humidity,HourlyPrecipIn,Conditions,Clouds,dailyrainin,SoftwareType,DateUTC
2013-08-15 00:04:00,65.9,62.9,30.00,NE,41,5.0,6.0,90,0.00,,,0.00,Wunderground v.1.15,2013-08-15 04:04:00,
2013-08-15 00:09:00,65.7,62.4,29.99,NNW,348,7.0,8.0,89,0.00,,,0.00,Wunderground v.1.15,2013-08-15 04:09:00,
2013-08-15 00:14:00,65.7,62.0,29.99,NNE,32,7.0,9.0,88,0.00,,,0.00,Wunderground v.1.15,2013-08-15 04:14:00,
2013-08-15 00:19:00,65.7,61.7,29.99,North,5,6.0,10.0,87,0.00,,,0.00,Wunderground v.1.15,2013-08-15 04:19:00,
2013-08-15 00:29:00,65.4,61.1,30.00,NE,50,7.0,7.0,86,0.00,,,0.00,Wunderground v.1.15,2013-08-15 04:29:00,
2013-08-15 00:39:00,65.2,60.9,30.00,NNE,30,7.0,7.0,86,0.00,,,0.00,Wunderground v.1.15,2013-08-15 04:39:00,
2013-08-15 00:44:00,65.0,61.0,30.00,NNE,30,6.0,7.0,87,0.00,,,0.00,Wunderground v.1.15,2013-08-15 04:44:00,
2013-08-15 00:54:00,64.7,61.1,30.01,NE,38,5.0,7.0,88,0.00,,,0.00,Wunderground v.1.15,2013-08-15 04:54:00,
2013-08-15 01:04:00,64.4,61.1,30.01,NE,52,5.0,5.0,89,0.00,,,0.00,Wunderground v.1.15,2013-08-15 05:04:00,
2013-08-15 01:14:00,64.2,60.9,30.01,ENE,69,5.0,9.0,89,0.00,,,0.00,Wunderground v.1.15,2013-08-15 05:14:00,
2013-08-15 01:24:00,64.0,61.0,30.00,NE,53,7.0,7.0,90,0.00,,,0.00,Wunderground v.1.15,2013-08-15 05:24:00,
2013-08-15 01:34:00,63.4,60.7,30.00,NE,37,6.0,7.0,91,0.00,,,0.00,Wunderground v.1.15,2013-08-15 05:34:00,
2013-08-15 01:39:00,63.2,60.8,30.01,NE,38,5.0,7.0,92,0.00,,,0.00,Wunderground v.1.15,2013-08-15 05:39:00,
2013-08-15 01:49:00,63.0,60.6,30.01,NNW,346,6.0,6.0,92,0.00,,,0.00,Wunderground v.1.15,2013-08-15 05:49:00,
2013-08-15 01:59:00,62.9,60.5,30.01,ENE,58,4.0,4.0,92,0.00,,,0.00,Wunderground v.1.15,2013-08-15 05:59:00,
2013-08-15 02:09:00,62.6,60.5,30.00,NE,55,5.0,10.0,93,0.00,,,0.00,Wunderground v.1.15,2013-08-15 06:09:00,
2013-08-15 02:19:00,62.2,60.2,30.00,NE,56,8.0,8.0,93,0.00,,,0.00,Wunderground v.1.15,2013-08-15 06:19:00,
2013-08-15 02:29:00,62.1,60.4,30.00,East,98,5.0,6.0,94,0.00,,,0.00,Wunderground v.1.15,2013-08-15 06:29:00,
2013-08-15 02:39:00,62.1,60.4,30.00,ENE,59,5.0,5.0,94,0.00,,,0.00,Wunderground v.1.15,2013-08-15 06:39:00,
2013-08-15 02:44:00,62.1,60.4,30.00,ENE,69,5.0,7.0,94,0.00,,,0.00,Wunderground v.1.15,2013-08-15 06:44:00,
2013-08-15 02:54:00,62.1,60.7,30.00,NNE,13,5.0,5.0,95,0.00,,,0.00,Wunderground v.1.15,2013-08-15 06:54:00,
2013-08-15 03:04:00,62.1,60.7,30.00,ENE,60,5.0,8.0,95,0.00,,,0.00,Wunderground v.1.15,2013-08-15 07:04:00,
2013-08-15 03:14:00,62.1,60.7,30.01,North,10,3.0,4.0,95,0.00,,,0.00,Wunderground v.1.15,2013-08-15 07:14:00,
2013-08-15 03:24:00,62.0,60.6,30.01,NNE,30,3.0,4.0,95,0.00,,,0.00,Wunderground v.1.15,2013-08-15 07:24:00,
2013-08-15 03:29:00,62.0,60.6,30.00,NE,44,4.0,7.0,95,0.00,,,0.00,Wunderground v.1.15,2013-08-15 07:29:00,
2013-08-15 03:39:00,62.1,60.7,30.00,NE,40,6.0,6.0,95,0.00,,,0.00,Wunderground v.1.15,2013-08-15 07:39:00,
2013-08-15 03:49:00,62.1,60.7,30.00,NNE,16,6.0,7.0,95,0.00,,,0.00,Wunderground v.1.15,2013-08-15 07:49:00,
2013-08-15 03:59:00,62.0,60.6,29.99,NE,39,6.0,8.0,95,0.00,,,0.00,Wunderground v.1.15,2013-08-15 07:59:00,
2013-08-15 04:09:00,62.0,60.6,29.99,NE,36,6.0,7.0,95,0.00,,,0.00,Wunderground v.1.15,2013-08-15 08:09:00,
2013-08-15 04:19:00,62.0,60.6,29.99,ENE,74,6.0,7.0,95,0.00,,,0.00,Wunderground v.1.15,2013-08-15 08:19:00,
2013-08-15 04:29:00,62.1,60.7,29.99,East,83,6.0,6.0,95,0.00,,,0.00,Wunderground v.1.15,2013-08-15 08:29:00,
2013-08-15 04:34:00,62.1,60.7,29.99,NE,44,7.0,8.0,95,0.00,,,0.00,Wunderground v.1.15,2013-08-15 08:34:00,
2013-08-15 04:44:00,62.2,60.8,30.00,North,360,6.0,8.0,95,0.00,,,0.00,Wunderground v.1.15,2013-08-15 08:44:00,
2013-08-15 04:54:00,62.3,60.8,30.00,North,360,3.0,5.0,95,0.00,,,0.00,Wunderground v.1.15,2013-08-15 08:54:00,
2013-08-15 05:04:00,62.4,60.9,30.01,North,355,2.0,2.0,95,0.00,,,0.00,Wunderground v.1.15,2013-08-15 09:04:00,
2013-08-15 05:14:00,62.4,60.9,30.02,NW,326,3.0,3.0,95,0.00,,,0.00,Wunderground v.1.15,2013-08-15 09:14:00,
2013-08-15 05:24:00,62.6,61.1,30.03,NNE,24,1.0,5.0,95,0.00,,,0.00,Wunderground v.1.15,2013-08-15 09:24:00,
2013-08-15 05:34:00,62.4,60.9,30.02,NNE,30,6.0,6.0,95,0.00,,,0.00,Wunderground v.1.15,2013-08-15 09:34:00,
2013-08-15 05:39:00,62.5,61.0,30.02,NNE,32,6.0,6.0,95,0.00,,,0.00,Wunderground v.1.15,2013-08-15 09:39:00,
2013-08-15 05:49:00,62.4,60.9,30.01,ENE,65,8.0,8.0,95,0.00,,,0.00,Wunderground v.1.15,2013-08-15 09:49:00,
2013-08-15 05:59:00,62.5,61.0,30.01,NE,53,6.0,6.0,95,0.00,,,0.00,Wunderground v.1.15,2013-08-15 09:59:00,
2013-08-15 06:09:00,62.4,60.9,30.02,ENE,76,4.0,4.0,95,0.00,,,0.00,Wunderground v.1.15,2013-08-15 10:09:00,
2013-08-15 06:19:00,62.4,60.9,30.01,East,84,5.0,6.0,95,0.00,,,0.00,Wunderground v.1.15,2013-08-15 10:19:00,
2013-08-15 06:24:00,62.4,60.9,30.01,NE,53,6.0,6.0,95,0.00,,,0.00,Wunderground v.1.15,2013-08-15 10:24:00,
2013-08-15 06:34:00,62.4,60.9,30.02,NE,36,5.0,9.0,95,0.00,,,0.00,Wunderground v.1.15,2013-08-15 10:34:00,
2013-08-15 06:44:00,62.4,60.9,30.02,NE,49,5.0,9.0,95,0.00,,,0.00,Wunderground v.1.15,2013-08-15 10:44:00,
2013-08-15 06:54:00,62.3,60.8,30.02,NNE,29,6.0,6.0,95,0.00,,,0.00,Wunderground v.1.15,2013-08-15 10:54:00,
2013-08-15 07:04:00,62.3,60.8,30.02,NNE,19,6.0,9.0,95,0.00,,,0.00,Wunderground v.1.15,2013-08-15 11:04:00,
2013-08-15 07:09:00,62.3,60.8,30.02,ENE,61,6.0,7.0,95,0.00,,,0.00,Wunderground v.1.15,2013-08-15 11:09:00,
2013-08-15 07:14:00,62.4,60.9,30.02,NE,49,6.0,9.0,95,0.00,,,0.00,Wunderground v.1.15,2013-08-15 11:14:00,
2013-08-15 07:24:00,62.4,60.9,30.02,NE,44,7.0,7.0,95,0.00,,,0.00,Wunderground v.1.15,2013-08-15 11:24:00,
2013-08-15 07:34:00,62.5,61.0,30.02,NE,36,5.0,6.0,95,0.00,,,0.00,Wunderground v.1.15,2013-08-15 11:34:00,
2013-08-15 07:39:00,62.6,61.1,30.02,ENE,69,5.0,5.0,95,0.00,,,0.00,Wunderground v.1.15,2013-08-15 11:39:00,
2013-08-15 07:49:00,62.7,61.2,30.03,ENE,63,4.0,4.0,95,0.00,,,0.00,Wunderground v.1.15,2013-08-15 11:49:00,
2013-08-15 07:59:00,62.7,61.2,30.03,North,11,4.0,6.0,95,0.00,,,0.00,Wunderground v.1.15,2013-08-15 11:59:00,
2013-08-15 08:09:00,62.9,61.4,30.04,NNE,19,4.0,4.0,95,0.00,,,0.00,Wunderground v.1.15,2013-08-15 12:09:00,
2013-08-15 08:19:00,62.9,61.4,30.04,ENE,58,3.0,7.0,95,0.00,,,0.00,Wunderground v.1.15,2013-08-15 12:19:00,
2013-08-15 08:24:00,62.9,61.4,30.04,NNE,30,4.0,10.0,95,0.00,,,0.00,Wunderground v.1.15,2013-08-15 12:24:00,
2013-08-15 08:34:00,63.0,61.5,30.04,NE,47,6.0,7.0,95,0.00,,,0.00,Wunderground v.1.15,2013-08-15 12:34:00,
2013-08-15 08:44:00,63.0,61.5,30.04,NNE,29,6.0,8.0,95,0.00,,,0.00,Wunderground v.1.15,2013-08-15 12:44:00,
2013-08-15 08:54:00,63.0,61.5,30.04,NNE,19,5.0,6.0,95,0.00,,,0.00,Wunderground v.1.15,2013-08-15 12:54:00,
2013-08-15 09:04:00,63.0,61.5,30.05,NNE,15,6.0,7.0,95,0.00,,,0.00,Wunderground v.1.15,2013-08-15 13:04:00,
2013-08-15 09:09:00,63.1,61.6,30.05,NNE,21,5.0,5.0,95,0.00,,,0.00,Wunderground v.1.15,2013-08-15 13:09:00,
2013-08-15 09:19:00,63.1,61.6,30.05,NE,38,5.0,9.0,95,0.00,,,0.00,Wunderground v.1.15,2013-08-15 13:19:00,
2013-08-15 09:29:00,63.0,61.5,30.05,NNE,17,6.0,6.0,95,0.00,,,0.00,Wunderground v.1.15,2013-08-15 13:29:00,
2013-08-15 09:34:00,63.0,61.8,30.05,NNE,15,5.0,7.0,96,0.00,,,0.00,Wunderground v.1.15,2013-08-15 13:34:00,
2013-08-15 09:44:00,63.1,61.9,30.05,North,11,7.0,10.0,96,0.00,,,0.00,Wunderground v.1.15,2013-08-15 13:44:00,
2013-08-15 09:49:00,63.2,62.0,30.05,NE,41,6.0,8.0,96,0.00,,,0.00,Wunderground v.1.15,2013-08-15 13:49:00,
2013-08-15 09:59:00,63.4,61.9,30.05,NNE,26,6.0,7.0,95,0.00,,,0.00,Wunderground v.1.15,2013-08-15 13:59:00,
2013-08-15 10:09:00,63.5,62.0,30.05,NNE,24,6.0,8.0,95,0.00,,,0.00,Wunderground v.1.15,2013-08-15 14:09:00,
2013-08-15 10:19:00,63.7,62.5,30.05,NE,40,6.0,6.0,96,0.00,,,0.00,Wunderground v.1.15,2013-08-15 14:19:00,
2013-08-15 10:24:00,63.9,62.7,30.06,NE,48,6.0,6.0,96,0.00,,,0.00,Wunderground v.1.15,2013-08-15 14:24:00,
2013-08-15 10:34:00,64.1,62.9,30.06,NE,54,7.0,7.0,96,0.00,,,0.00,Wunderground v.1.15,2013-08-15 14:34:00,
2013-08-15 10:39:00,64.2,63.0,30.06,NNE,32,6.0,7.0,96,0.00,,,0.00,Wunderground v.1.15,2013-08-15 14:39:00,
2013-08-15 10:49:00,64.3,63.1,30.06,NE,51,6.0,6.0,96,0.00,,,0.00,Wunderground v.1.15,2013-08-15 14:49:00,
2013-08-15 10:59:00,64.4,63.2,30.06,NNE,13,6.0,8.0,96,0.00,,,0.00,Wunderground v.1.15,2013-08-15 14:59:00,
2013-08-15 11:09:00,64.5,63.3,30.06,NE,43,6.0,6.0,96,0.00,,,0.00,Wunderground v.1.15,2013-08-15 15:09:00,
2013-08-15 11:19:00,64.5,63.0,30.06,NNE,25,7.0,7.0,95,0.00,,,0.00,Wunderground v.1.15,2013-08-15 15:19:00,
2013-08-15 11:29:00,64.7,63.2,30.06,NE,48,6.0,6.0,95,0.00,,,0.00,Wunderground v.1.15,2013-08-15 15:29:00,
2013-08-15 11:34:00,64.8,63.3,30.06,NNE,12,6.0,7.0,95,0.00,,,0.00,Wunderground v.1.15,2013-08-15 15:34:00,
2013-08-15 11:44:00,65.0,63.5,30.06,NE,40,6.0,6.0,95,0.00,,,0.00,Wunderground v.1.15,2013-08-15 15:44:00,
2013-08-15 11:54:00,65.2,63.7,30.06,NNE,27,5.0,5.0,95,0.00,,,0.00,Wunderground v.1.15,2013-08-15 15:54:00,
2013-08-15 12:04:00,65.4,63.9,30.06,NE,43,7.0,11.0,95,0.00,,,0.00,Wunderground v.1.15,2013-08-15 16:04:00,
2013-08-15 12:14:00,65.8,64.0,30.06,NNE,24,7.0,12.0,94,0.00,,,0.00,Wunderground v.1.15,2013-08-15 16:14:00,
2013-08-15 12:24:00,66.1,64.3,30.06,NE,46,6.0,6.0,94,0.00,,,0.00,Wunderground v.1.15,2013-08-15 16:24:00,
2013-08-15 12:29:00,66.3,64.2,30.05,ENE,68,6.0,6.0,93,0.00,,,0.00,Wunderground v.1.15,2013-08-15 16:29:00,
2013-08-15 12:39:00,66.7,64.6,30.05,NE,51,6.0,6.0,93,0.00,,,0.00,Wunderground v.1.15,2013-08-15 16:39:00,
2013-08-15 12:49:00,66.8,64.4,30.05,ENE,57,7.0,7.0,92,0.00,,,0.00,Wunderground v.1.15,2013-08-15 16:49:00,
2013-08-15 12:59:00,67.2,64.5,30.04,NNE,23,6.0,6.0,91,0.00,,,0.00,Wunderground v.1.15,2013-08-15 16:59:00,
2013-08-15 13:09:00,67.3,64.6,30.04,NE,43,7.0,7.0,91,0.00,,,0.00,Wunderground v.1.15,2013-08-15 17:09:00,
2013-08-15 13:14:00,67.3,64.6,30.04,NNE,28,7.0,7.0,91,0.00,,,0.00,Wunderground v.1.15,2013-08-15 17:14:00,
2013-08-15 13:24:00,67.5,64.8,30.04,NE,50,6.0,8.0,91,0.00,,,0.00,Wunderground v.1.15,2013-08-15 17:24:00,
2013-08-15 13:34:00,68.0,65.6,30.03,NE,47,6.0,6.0,92,0.00,,,0.00,Wunderground v.1.15,2013-08-15 17:34:00,
2013-08-15 13:39:00,68.5,65.8,30.03,NE,43,6.0,6.0,91,0.00,,,0.00,Wunderground v.1.15,2013-08-15 17:39:00,
2013-08-15 13:49:00,68.9,65.8,30.03,NNE,19,6.0,6.0,90,0.00,,,0.00,Wunderground v.1.15,2013-08-15 17:49:00,
2013-08-15 13:59:00,69.5,66.1,30.03,NNE,28,5.0,5.0,89,0.00,,,0.00,Wunderground v.1.15,2013-08-15 17:59:00,
2013-08-15 14:09:00,69.6,65.9,30.02,NNE,21,5.0,6.0,88,0.00,,,0.00,Wunderground v.1.15,2013-08-15 18:09:00,
2013-08-15 14:14:00,70.3,66.9,30.02,NE,44,6.0,6.0,89,0.00,,,0.00,Wunderground v.1.15,2013-08-15 18:14:00,
2013-08-15 14:24:00,70.6,66.5,30.02,NNE,15,6.0,8.0,87,0.00,,,0.00,Wunderground v.1.15,2013-08-15 18:24:00,
2013-08-15 14:39:00,71.0,66.6,30.02,NNE,26,4.0,4.0,86,0.00,,,0.00,Wunderground v.1.15,2013-08-15 18:39:00,
2013-08-15 14:49:00,70.8,66.7,30.02,NE,51,4.0,7.0,87,0.00,,,0.00,Wunderground v.1.15,2013-08-15 18:49:00,
2013-08-15 14:59:00,71.2,67.1,30.02,NE,44,5.0,5.0,87,0.00,,,0.00,Wunderground v.1.15,2013-08-15 18:59:00,
2013-08-15 15:09:00,71.4,67.3,30.01,NE,42,4.0,4.0,87,0.00,,,0.00,Wunderground v.1.15,2013-08-15 19:09:00,
2013-08-15 15:14:00,71.3,67.2,30.01,NE,54,4.0,7.0,87,0.00,,,0.00,Wunderground v.1.15,2013-08-15 19:14:00,
2013-08-15 15:29:00,71.3,67.6,30.01,NNE,28,4.0,5.0,88,0.00,,,0.00,Wunderground v.1.15,2013-08-15 19:29:00,
2013-08-15 15:39:00,71.5,67.4,30.01,ENE,57,4.0,4.0,87,0.00,,,0.00,Wunderground v.1.15,2013-08-15 19:39:00,
2013-08-15 15:49:00,71.6,67.5,30.01,NE,53,5.0,7.0,87,0.00,,,0.00,Wunderground v.1.15,2013-08-15 19:49:00,
2013-08-15 15:59:00,71.6,67.5,30.01,NE,51,5.0,5.0,87,0.00,,,0.00,Wunderground v.1.15,2013-08-15 19:59:00,
2013-08-15 16:09:00,71.9,68.2,30.01,NE,35,4.0,5.0,88,0.00,,,0.00,Wunderground v.1.15,2013-08-15 20:09:00,
2013-08-15 16:14:00,71.8,67.7,30.01,NNE,32,3.0,5.0,87,0.00,,,0.00,Wunderground v.1.15,2013-08-15 20:14:00,
2013-08-15 16:24:00,71.5,67.4,30.01,NE,37,5.0,6.0,87,0.00,,,0.00,Wunderground v.1.15,2013-08-15 20:24:00,
2013-08-15 16:34:00,71.2,67.5,30.01,NE,46,4.0,6.0,88,0.00,,,0.00,Wunderground v.1.15,2013-08-15 20:34:00,
2013-08-15 16:39:00,71.1,67.4,30.01,NE,52,3.0,4.0,88,0.00,,,0.00,Wunderground v.1.15,2013-08-15 20:39:00,
2013-08-15 16:49:00,70.3,67.2,30.01,ENE,63,3.0,4.0,90,0.00,,,0.00,Wunderground v.1.15,2013-08-15 20:49:00,
2013-08-15 16:54:00,70.1,67.3,30.01,ENE,57,2.0,4.0,91,0.00,,,0.00,Wunderground v.1.15,2013-08-15 20:54:00,
2013-08-15 17:04:00,69.8,67.4,30.01,NE,35,3.0,3.0,92,0.00,,,0.00,Wunderground v.1.15,2013-08-15 21:04:00,
2013-08-15 17:14:00,69.6,67.5,30.01,NE,41,2.0,4.0,93,0.00,,,0.00,Wunderground v.1.15,2013-08-15 21:14:00,
2013-08-15 17:24:00,69.7,67.6,30.01,NE,44,2.0,2.0,93,0.00,,,0.00,Wunderground v.1.15,2013-08-15 21:24:00,
2013-08-15 17:34:00,69.3,67.2,30.01,NE,49,4.0,5.0,93,0.00,,,0.00,Wunderground v.1.15,2013-08-15 21:34:00,
2013-08-15 17:44:00,69.3,67.2,30.01,NE,49,3.0,4.0,93,0.00,,,0.00,Wunderground v.1.15,2013-08-15 21:44:00,
2013-08-15 17:54:00,69.1,67.0,30.02,NE,52,2.0,3.0,93,0.00,,,0.00,Wunderground v.1.15,2013-08-15 21:54:00,
2013-08-15 18:09:00,68.8,66.7,30.02,NNE,32,3.0,4.0,93,0.00,,,0.00,Wunderground v.1.15,2013-08-15 22:09:00,
2013-08-15 18:19:00,68.8,66.7,30.01,NE,47,3.0,3.0,93,0.00,,,0.00,Wunderground v.1.15,2013-08-15 22:19:00,
2013-08-15 18:29:00,68.7,66.6,30.01,NNE,29,3.0,5.0,93,0.00,,,0.00,Wunderground v.1.15,2013-08-15 22:29:00,
2013-08-15 18:39:00,68.6,66.5,30.01,NE,45,3.0,3.0,93,0.00,,,0.00,Wunderground v.1.15,2013-08-15 22:39:00,
2013-08-15 18:44:00,68.6,66.8,30.01,NE,55,3.0,3.0,94,0.00,,,0.00,Wunderground v.1.15,2013-08-15 22:44:00,
2013-08-15 18:54:00,68.5,66.7,30.01,NE,51,2.0,4.0,94,0.00,,,0.00,Wunderground v.1.15,2013-08-15 22:54:00,
2013-08-15 18:59:00,68.5,66.7,30.01,ENE,62,2.0,3.0,94,0.00,,,0.00,Wunderground v.1.15,2013-08-15 22:59:00,
2013-08-15 19:09:00,68.4,66.6,30.01,NE,55,2.0,2.0,94,0.00,,,0.00,Wunderground v.1.15,2013-08-15 23:09:00,
2013-08-15 19:19:00,68.1,66.3,30.01,NNE,28,3.0,3.0,94,0.00,,,0.00,Wunderground v.1.15,2013-08-15 23:19:00,
2013-08-15 19:29:00,68.1,66.3,30.02,NE,49,3.0,3.0,94,0.00,,,0.00,Wunderground v.1.15,2013-08-15 23:29:00,
2013-08-15 19:39:00,68.0,66.2,30.01,NE,49,2.0,4.0,94,0.00,,,0.00,Wunderground v.1.15,2013-08-15 23:39:00,
2013-08-15 19:44:00,67.9,66.1,30.01,NNE,31,2.0,4.0,94,0.00,,,0.00,Wunderground v.1.15,2013-08-15 23:44:00,
2013-08-15 19:54:00,67.7,65.9,30.02,NE,40,2.0,2.0,94,0.00,,,0.00,Wunderground v.1.15,2013-08-15 23:54:00,
2013-08-15 20:04:00,67.6,65.8,30.02,NE,46,3.0,4.0,94,0.00,,,0.00,Wunderground v.1.15,2013-08-16 00:04:00,
2013-08-15 20:14:00,67.5,65.7,30.02,NE,55,2.0,3.0,94,0.00,,,0.00,Wunderground v.1.15,2013-08-16 00:14:00,
2013-08-15 20:19:00,67.5,65.7,30.02,NE,50,2.0,2.0,94,0.00,,,0.00,Wunderground v.1.15,2013-08-16 00:19:00,
2013-08-15 20:29:00,67.5,65.7,30.03,NE,49,2.0,2.0,94,0.00,,,0.00,Wunderground v.1.15,2013-08-16 00:29:00,
2013-08-15 20:49:00,67.5,65.7,30.04,NE,48,1.0,1.0,94,0.00,,,0.00,Wunderground v.1.15,2013-08-16 00:49:00,
2013-08-15 20:59:00,67.4,65.6,30.05,NE,48,0.0,1.0,94,0.00,,,0.00,Wunderground v.1.15,2013-08-16 00:59:00,
2013-08-15 21:09:00,67.3,65.5,30.05,NE,45,1.0,1.0,94,0.00,,,0.00,Wunderground v.1.15,2013-08-16 01:09:00,
2013-08-15 21:19:00,67.3,65.5,30.06,NE,45,1.0,2.0,94,0.00,,,0.00,Wunderground v.1.15,2013-08-16 01:19:00,
2013-08-15 21:29:00,67.2,65.4,30.06,NE,44,1.0,2.0,94,0.00,,,0.00,Wunderground v.1.15,2013-08-16 01:29:00,
2013-08-15 21:44:00,67.1,65.3,30.07,NE,34,1.0,1.0,94,0.00,,,0.00,Wunderground v.1.15,2013-08-16 01:44:00,
2013-08-15 21:49:00,67.0,65.2,30.07,NE,34,0.0,0.0,94,0.00,,,0.00,Wunderground v.1.15,2013-08-16 01:49:00,
2013-08-15 21:59:00,67.0,65.2,30.07,NNE,33,0.0,0.0,94,0.00,,,0.00,Wunderground v.1.15,2013-08-16 01:59:00,
2013-08-15 22:09:00,67.0,65.2,30.07,NNE,33,0.0,1.0,94,0.00,,,0.00,Wunderground v.1.15,2013-08-16 02:09:00,
2013-08-15 22:19:00,66.6,64.8,30.07,NNE,32,3.0,3.0,94,0.00,,,0.00,Wunderground v.1.15,2013-08-16 02:19:00,
2013-08-15 22:29:00,66.5,64.7,30.07,NNE,18,2.0,3.0,94,0.00,,,0.00,Wunderground v.1.15,2013-08-16 02:29:00,
2013-08-15 22:34:00,66.4,64.6,30.07,NE,34,2.0,3.0,94,0.00,,,0.00,Wunderground v.1.15,2013-08-16 02:34:00,
2013-08-15 22:39:00,66.4,64.6,30.07,NNE,32,3.0,3.0,94,0.00,,,0.00,Wunderground v.1.15,2013-08-16 02:39:00,
2013-08-15 22:49:00,66.3,64.5,30.06,ENE,66,3.0,4.0,94,0.00,,,0.00,Wunderground v.1.15,2013-08-16 02:49:00,
2013-08-15 22:54:00,66.3,64.8,30.06,NNE,28,3.0,4.0,95,0.00,,,0.00,Wunderground v.1.15,2013-08-16 02:54:00,
2013-08-15 23:04:00,66.3,64.8,30.06,NNE,31,2.0,3.0,95,0.00,,,0.00,Wunderground v.1.15,2013-08-16 03:04:00,
2013-08-15 23:14:00,66.2,64.7,30.06,NE,40,2.0,4.0,95,0.00,,,0.00,Wunderground v.1.15,2013-08-16 03:14:00,
2013-08-15 23:24:00,66.2,64.7,30.06,NE,42,3.0,3.0,95,0.00,,,0.00,Wunderground v.1.15,2013-08-16 03:24:00,
2013-08-15 23:34:00,66.2,64.7,30.05,NNE,26,2.0,4.0,95,0.00,,,0.00,Wunderground v.1.15,2013-08-16 03:34:00,
2013-08-15 23:44:00,66.2,64.7,30.05,NE,51,3.0,4.0,95,0.00,,,0.00,Wunderground v.1.15,2013-08-16 03:44:00,
2013-08-15 23:49:00,66.3,64.8,30.05,NE,44,3.0,3.0,95,0.00,,,0.00,Wunderground v.1.15,2013-08-16 03:49:00,
2013-08-15 23:59:00,66.3,64.8,30.05,NNE,26,3.0,3.0,95,0.00,,,0.00,Wunderground v.1.15,2013-08-16 03:59:00,